createdAt,value
2023-01-11T00:26:44.351Z,30.52
2023-01-11T00:46:44.338Z,30.52
2023-01-11T01:06:44.329Z,30.52
2023-01-11T01:26:44.292Z,30.52
2023-01-11T01:46:44.319Z,30.52
2023-01-11T02:06:44.361Z,30.52
2023-01-11T02:46:44.230Z,30.52
2023-01-11T05:26:43.955Z,30.51
2023-01-11T05:46:43.957Z,30.51
2023-01-11T06:26:43.902Z,30.51
2023-01-11T06:46:43.867Z,30.51
2023-01-11T07:06:43.847Z,30.52
2023-01-11T07:26:43.822Z,30.52
2023-01-11T07:46:43.872Z,30.53
2023-01-11T08:06:43.763Z,30.54
2023-01-11T08:26:43.792Z,30.55
2023-01-11T08:46:43.808Z,30.56
2023-01-11T09:06:43.691Z,30.57
2023-01-11T09:46:43.724Z,30.61
2023-01-11T10:46:43.549Z,30.67
2023-01-11T11:06:43.600Z,30.68
2023-01-11T11:46:43.483Z,30.72
2023-01-11T12:06:43.463Z,30.74
2023-01-11T12:26:43.479Z,30.76
2023-01-11T13:46:43.392Z,30.83
2023-01-11T14:06:43.313Z,30.83
2023-01-11T14:26:43.290Z,30.84
2023-01-11T14:46:43.287Z,30.85
2023-01-11T15:06:43.211Z,30.85
2023-01-11T15:26:43.036Z,30.86
2023-01-11T15:46:43.241Z,30.86
2023-01-11T16:06:43.148Z,30.87
2023-01-11T16:26:43.192Z,30.87
2023-01-11T16:46:42.806Z,30.87
2023-01-11T17:06:43.061Z,30.88
2023-01-11T17:26:43.060Z,30.87
2023-01-11T17:46:43.009Z,30.87
2023-01-11T18:06:42.978Z,30.87
2023-01-11T18:26:43.022Z,30.87
2023-01-11T18:46:42.933Z,30.88
2023-01-11T19:06:42.656Z,30.87
2023-01-11T19:26:42.937Z,30.87
2023-01-11T19:46:42.886Z,30.87
2023-01-11T20:06:42.823Z,30.87
2023-01-11T20:26:42.892Z,30.87
2023-01-11T20:46:42.855Z,30.87
2023-01-11T21:26:42.785Z,30.86
2023-01-11T21:46:42.778Z,30.86
2023-01-11T22:06:42.674Z,30.86
2023-01-11T22:26:42.712Z,30.85
2023-01-11T22:46:42.620Z,30.85
2023-01-11T23:06:42.613Z,30.85
2023-01-11T23:26:42.650Z,30.85
2023-01-11T23:46:42.549Z,30.85
